Time;durP1;ratioP1;P1;durP2;ratioP2;P2;SDS_P1;SDS_P2;PMS_P1;PMS_P2;Temp;Humidity;BMP_temperature;BMP_pressure;BME280_temperature;BME280_humidity;BME280_pressure;Samples;Min_cycle;Max_cycle;Signal;HPM_P1;HPM_P2
2020/12/28 00:00:14;;;;;;;10.32;3.13;;;1.60;99.90;;;;;;4980901;28;20196;-68
2020/12/28 00:02:40;;;;;;;8.40;2.85;;;1.50;99.90;;;;;;4976842;28;20205;-67
2020/12/28 00:05:11;;;;;;;8.13;3.15;;;1.60;99.90;;;;;;4978922;28;20250;-68
2020/12/28 00:07:38;;;;;;;7.55;3.00;;;1.60;99.90;;;;;;4976648;28;20211;-68
2020/12/28 00:10:06;;;;;;;9.02;3.03;;;1.60;99.90;;;;;;4981363;28;20276;-68
2020/12/28 00:12:46;;;;;;;8.18;3.28;;;1.60;99.90;;;;;;4976531;28;20649;-67
2020/12/28 00:15:20;;;;;;;7.88;3.47;;;1.60;99.90;;;;;;4975869;28;20206;-67
2020/12/28 00:17:48;;;;;;;9.85;3.65;;;1.60;99.90;;;;;;4978763;28;20652;-67
2020/12/28 00:20:16;;;;;;;14.85;3.45;;;1.60;99.90;;;;;;4976852;28;20192;-67
2020/12/28 00:22:41;;;;;;;11.25;3.42;;;1.60;99.90;;;;;;4976835;28;20187;-67
2020/12/28 00:25:07;;;;;;;7.40;2.95;;;1.60;99.90;;;;;;4977698;28;20200;-67
2020/12/28 00:27:33;;;;;;;10.73;3.38;;;1.60;99.90;;;;;;4975473;28;20219;-68
2020/12/28 00:29:59;;;;;;;12.82;3.80;;;1.60;99.90;;;;;;4979353;28;20227;-68
2020/12/28 00:32:24;;;;;;;11.10;3.50;;;1.60;99.90;;;;;;4983109;28;20199;-68
2020/12/28 00:34:50;;;;;;;7.78;3.35;;;1.60;99.90;;;;;;4978157;28;20200;-68
2020/12/28 00:37:16;;;;;;;11.23;3.00;;;1.50;99.90;;;;;;4981526;28;20958;-68
2020/12/28 00:39:42;;;;;;;12.65;3.25;;;1.50;99.90;;;;;;4978299;28;20198;-68
2020/12/28 00:42:07;;;;;;;7.68;3.10;;;1.40;99.90;;;;;;4978393;28;20195;-68
2020/12/28 00:44:33;;;;;;;8.90;2.88;;;1.40;99.90;;;;;;4976427;28;21993;-67
2020/12/28 00:46:58;;;;;;;7.50;3.30;;;1.40;99.90;;;;;;4975372;28;20199;-68
2020/12/28 00:49:24;;;;;;;6.45;3.00;;;1.40;99.90;;;;;;4979864;28;20208;-69
2020/12/28 00:51:50;;;;;;;7.03;3.10;;;1.40;99.90;;;;;;4976676;28;20214;-68
2020/12/28 00:54:15;;;;;;;10.63;3.28;;;1.30;99.90;;;;;;4980769;28;20231;-68
2020/12/28 00:56:41;;;;;;;13.18;3.72;;;1.30;99.90;;;;;;4976842;28;20279;-68
2020/12/28 00:59:07;;;;;;;6.65;3.20;;;1.30;99.90;;;;;;4976105;28;20254;-69
2020/12/28 01:01:32;;;;;;;11.05;3.42;;;1.30;99.90;;;;;;4973553;28;20204;-67
2020/12/28 01:03:58;;;;;;;9.38;3.00;;;1.20;99.90;;;;;;4975705;28;20224;-67
2020/12/28 01:06:24;;;;;;;9.70;3.65;;;1.20;99.90;;;;;;4978807;28;20732;-67
2020/12/28 01:08:49;;;;;;;12.50;3.25;;;1.20;99.90;;;;;;4980530;28;20207;-67
2020/12/28 01:11:24;;;;;;;11.77;3.50;;;1.10;99.90;;;;;;4975447;28;20286;-67
2020/12/28 01:13:49;;;;;;;12.85;3.10;;;1.10;99.90;;;;;;4975515;28;20196;-68
2020/12/28 01:16:15;;;;;;;12.95;3.40;;;1.10;99.90;;;;;;4976385;28;20203;-68
2020/12/28 01:18:41;;;;;;;10.98;3.88;;;1.10;99.90;;;;;;4979188;28;20195;-67
2020/12/28 01:21:07;;;;;;;9.60;3.25;;;1.00;99.90;;;;;;4976268;28;20749;-68
2020/12/28 01:23:33;;;;;;;16.60;3.90;;;1.10;99.90;;;;;;4976478;28;20281;-68
2020/12/28 01:25:58;;;;;;;11.68;3.60;;;1.10;99.90;;;;;;4976467;28;20200;-68
2020/12/28 01:28:24;;;;;;;10.20;3.20;;;1.10;99.90;;;;;;4978137;28;20208;-68
2020/12/28 01:30:50;;;;;;;12.95;3.45;;;1.10;99.90;;;;;;4976652;28;20207;-67
2020/12/28 01:33:15;;;;;;;7.47;3.45;;;1.00;99.90;;;;;;4977386;28;20251;-66
2020/12/28 01:35:41;;;;;;;10.10;3.17;;;1.00;99.90;;;;;;4976108;28;20199;-67
2020/12/28 01:38:07;;;;;;;11.75;3.40;;;1.00;99.90;;;;;;4976546;28;20183;-67
2020/12/28 01:40:33;;;;;;;11.77;3.45;;;1.10;99.90;;;;;;4977038;28;20207;-67
2020/12/28 01:42:59;;;;;;;12.50;3.80;;;1.10;99.90;;;;;;4981477;28;20196;-67
2020/12/28 01:45:25;;;;;;;17.65;3.60;;;1.10;99.90;;;;;;4978038;28;20265;-67
2020/12/28 01:47:51;;;;;;;9.27;3.30;;;1.10;99.90;;;;;;4977268;28;20196;-67
2020/12/28 01:50:17;;;;;;;14.18;3.90;;;1.00;99.90;;;;;;4976248;28;20214;-66
2020/12/28 01:52:42;;;;;;;14.05;3.97;;;1.00;99.90;;;;;;4977798;28;20984;-67
2020/12/28 01:55:09;;;;;;;14.02;3.60;;;1.00;99.90;;;;;;4975280;28;20282;-67
2020/12/28 01:57:35;;;;;;;9.63;3.85;;;1.00;99.90;;;;;;4975937;28;20226;-67
2020/12/28 02:00:01;;;;;;;11.63;3.92;;;1.00;99.90;;;;;;4974419;28;20215;-67
2020/12/28 02:02:28;;;;;;;10.98;3.70;;;1.00;99.90;;;;;;4969776;28;20208;-67
2020/12/28 02:04:55;;;;;;;8.85;3.65;;;1.10;99.90;;;;;;4972631;28;20687;-67
2020/12/28 02:07:23;;;;;;;12.38;4.10;;;1.10;99.90;;;;;;4978745;28;20223;-67
2020/12/28 02:09:49;;;;;;;15.90;3.70;;;1.20;99.90;;;;;;4973268;28;20287;-67
2020/12/28 02:12:15;;;;;;;9.85;3.78;;;1.20;99.90;;;;;;4978672;28;21015;-68
2020/12/28 02:14:41;;;;;;;11.27;4.18;;;1.10;99.90;;;;;;4977317;28;20199;-68
2020/12/28 02:17:06;;;;;;;11.93;4.50;;;1.10;99.90;;;;;;4977243;28;20197;-68
2020/12/28 02:19:32;;;;;;;13.25;4.03;;;1.10;99.90;;;;;;4977123;28;20203;-67
2020/12/28 02:21:58;;;;;;;11.32;4.25;;;1.20;99.90;;;;;;4971932;28;20274;-67
2020/12/28 02:24:24;;;;;;;13.65;4.00;;;1.20;99.90;;;;;;4975169;28;20207;-67
2020/12/28 02:26:50;;;;;;;14.30;4.35;;;1.20;99.90;;;;;;4976661;28;20864;-68
2020/12/28 02:29:15;;;;;;;11.75;4.40;;;1.10;99.90;;;;;;4974936;28;20202;-68
2020/12/28 02:31:41;;;;;;;20.05;4.32;;;1.10;99.90;;;;;;4975962;28;20740;-67
2020/12/28 02:34:07;;;;;;;14.13;4.57;;;1.10;99.90;;;;;;4976273;28;20298;-67
2020/12/28 02:36:33;;;;;;;12.07;4.15;;;1.00;99.90;;;;;;4975236;28;20843;-68
2020/12/28 02:38:59;;;;;;;16.00;4.45;;;1.10;99.90;;;;;;4974380;28;20196;-66
2020/12/28 02:41:25;;;;;;;13.63;3.90;;;1.10;99.90;;;;;;4975201;28;20764;-68
2020/12/28 02:43:51;;;;;;;13.50;4.32;;;1.10;99.90;;;;;;4974448;28;20203;-68
2020/12/28 02:46:18;;;;;;;18.23;4.75;;;1.00;99.90;;;;;;4975978;28;20207;-67
2020/12/28 02:48:43;;;;;;;15.57;4.60;;;0.90;99.90;;;;;;4973976;28;20210;-68
2020/12/28 02:51:12;;;;;;;14.77;4.78;;;0.90;99.90;;;;;;4973206;28;20655;-68
2020/12/28 02:53:38;;;;;;;13.38;5.20;;;0.80;99.90;;;;;;4976057;28;20227;-68
2020/12/28 02:56:03;;;;;;;16.90;5.03;;;0.80;99.90;;;;;;4976557;28;20209;-68
2020/12/28 02:58:29;;;;;;;16.40;4.80;;;0.70;99.90;;;;;;4977234;28;20239;-68
2020/12/28 03:00:55;;;;;;;17.23;5.03;;;0.70;99.90;;;;;;4972361;28;20779;-68
2020/12/28 03:03:20;;;;;;;19.13;5.07;;;0.70;99.90;;;;;;4971768;28;20228;-68
2020/12/28 03:05:46;;;;;;;26.77;5.75;;;0.60;99.90;;;;;;4974357;28;20215;-69
2020/12/28 03:08:11;;;;;;;12.38;5.20;;;0.60;99.90;;;;;;4976736;28;20283;-69
2020/12/28 03:10:37;;;;;;;16.55;5.57;;;0.50;99.90;;;;;;4976597;28;20294;-69
2020/12/28 03:13:03;;;;;;;17.52;5.20;;;0.50;99.90;;;;;;4977484;28;20226;-68
2020/12/28 03:15:29;;;;;;;19.70;4.97;;;0.50;99.90;;;;;;4977922;28;20211;-69
2020/12/28 03:17:54;;;;;;;16.38;4.70;;;0.50;99.90;;;;;;4976217;28;20196;-69
2020/12/28 03:20:20;;;;;;;14.82;5.57;;;0.50;99.90;;;;;;4976792;28;20192;-70
2020/12/28 03:22:45;;;;;;;10.55;5.15;;;0.50;99.90;;;;;;4991308;28;20195;-69
2020/12/28 03:25:11;;;;;;;17.35;4.97;;;0.50;99.90;;;;;;4978615;28;20298;-69
2020/12/28 03:27:37;;;;;;;16.42;5.43;;;0.50;99.90;;;;;;4978151;28;20267;-69
2020/12/28 03:30:03;;;;;;;16.63;4.82;;;0.50;99.90;;;;;;4974013;28;20250;-68
2020/12/28 03:32:29;;;;;;;15.75;4.68;;;0.50;99.90;;;;;;4977403;28;20211;-68
2020/12/28 03:34:54;;;;;;;18.17;5.38;;;0.40;99.90;;;;;;4979972;28;20206;-69
2020/12/28 03:37:20;;;;;;;18.17;5.28;;;0.40;99.90;;;;;;4980774;28;20199;-69
2020/12/28 03:39:46;;;;;;;14.73;5.38;;;0.50;99.90;;;;;;4980791;28;20238;-68
2020/12/28 03:42:11;;;;;;;16.52;5.43;;;0.40;99.90;;;;;;4980899;28;20254;-69
2020/12/28 03:44:37;;;;;;;16.30;5.53;;;0.40;99.90;;;;;;4993644;28;20267;-69
2020/12/28 03:47:02;;;;;;;14.57;5.70;;;0.50;99.90;;;;;;4978196;28;20590;-69
2020/12/28 03:49:28;;;;;;;15.10;5.25;;;0.50;99.90;;;;;;4974728;28;20671;-69
2020/12/28 03:51:54;;;;;;;18.67;5.40;;;0.40;99.90;;;;;;4978719;28;20924;-70
2020/12/28 03:54:20;;;;;;;15.93;6.00;;;0.50;99.90;;;;;;4976231;28;20256;-69
2020/12/28 03:56:45;;;;;;;19.23;5.28;;;0.50;99.90;;;;;;4978104;28;20210;-69
2020/12/28 03:59:11;;;;;;;18.02;6.35;;;0.40;99.90;;;;;;4982483;28;20198;-69
2020/12/28 04:01:37;;;;;;;13.23;5.18;;;0.40;99.90;;;;;;4979821;28;20729;-70
2020/12/28 04:04:02;;;;;;;11.65;5.47;;;0.40;99.90;;;;;;4978102;28;20239;-70
2020/12/28 04:06:28;;;;;;;20.27;5.40;;;0.40;99.90;;;;;;4976482;28;20255;-69
2020/12/28 04:08:54;;;;;;;22.58;5.60;;;0.40;99.90;;;;;;4976283;28;20242;-70
2020/12/28 04:11:19;;;;;;;14.00;5.45;;;0.40;99.90;;;;;;4976246;28;20218;-70
2020/12/28 04:13:45;;;;;;;15.60;5.70;;;0.40;99.90;;;;;;4976967;28;20699;-70
2020/12/28 04:16:14;;;;;;;23.48;6.25;;;0.40;99.90;;;;;;4974186;28;20207;-71
2020/12/28 04:18:40;;;;;;;18.33;6.03;;;0.40;99.90;;;;;;4973638;28;20211;-70
2020/12/28 04:21:05;;;;;;;25.00;6.40;;;0.40;99.90;;;;;;4977954;28;20682;-70
2020/12/28 04:23:31;;;;;;;25.88;5.95;;;0.40;99.90;;;;;;4978462;28;20199;-70
2020/12/28 04:25:56;;;;;;;17.35;6.15;;;0.40;99.90;;;;;;4978960;28;20670;-70
2020/12/28 04:28:22;;;;;;;11.48;5.50;;;0.40;99.90;;;;;;4974299;28;20678;-70
2020/12/28 04:30:48;;;;;;;18.92;6.35;;;0.40;99.90;;;;;;4975943;28;21701;-70
2020/12/28 04:33:13;;;;;;;13.98;5.72;;;0.40;99.90;;;;;;4979215;28;20231;-71
2020/12/28 04:35:39;;;;;;;21.13;6.53;;;0.30;99.90;;;;;;4980469;28;20254;-71
2020/12/28 04:38:05;;;;;;;15.90;5.78;;;0.30;99.90;;;;;;4981137;28;20670;-71
2020/12/28 04:40:30;;;;;;;16.77;6.22;;;0.40;99.90;;;;;;4976201;28;20726;-70
2020/12/28 04:42:56;;;;;;;18.83;6.20;;;0.30;99.90;;;;;;4977287;28;20290;-72
2020/12/28 04:45:22;;;;;;;16.15;5.90;;;0.30;99.90;;;;;;4979679;28;20643;-71
2020/12/28 04:47:48;;;;;;;17.15;5.95;;;0.40;99.90;;;;;;4979262;28;20258;-72
2020/12/28 04:50:14;;;;;;;11.93;5.90;;;0.30;99.90;;;;;;4977851;28;21073;-71
2020/12/28 04:52:40;;;;;;;16.67;6.22;;;0.30;99.90;;;;;;4976422;28;20195;-70
2020/12/28 04:55:06;;;;;;;13.85;6.18;;;0.40;99.90;;;;;;4977284;28;20818;-70
2020/12/28 04:57:32;;;;;;;14.68;5.93;;;0.40;99.90;;;;;;4974842;28;20222;-70
2020/12/28 04:59:57;;;;;;;17.08;6.13;;;0.40;99.90;;;;;;4972947;28;20769;-69
2020/12/28 05:02:24;;;;;;;15.77;6.63;;;0.50;99.90;;;;;;4978030;28;20685;-72
2020/12/28 05:04:50;;;;;;;18.63;6.63;;;0.50;99.90;;;;;;4975730;28;20391;-72
2020/12/28 05:07:15;;;;;;;14.98;6.47;;;0.50;99.90;;;;;;4975803;28;20218;-71
2020/12/28 05:09:41;;;;;;;16.67;6.90;;;0.50;99.90;;;;;;4982092;28;20204;-71
2020/12/28 05:12:08;;;;;;;14.15;6.03;;;0.50;99.90;;;;;;4977823;28;21001;-72
2020/12/28 05:14:34;;;;;;;18.60;6.40;;;0.50;99.90;;;;;;4980116;28;20195;-73
2020/12/28 05:17:08;;;;;;;17.27;7.00;;;0.50;99.90;;;;;;4979130;28;20188;-71
2020/12/28 05:19:35;;;;;;;19.17;6.88;;;0.50;99.90;;;;;;4975359;28;20881;-71
2020/12/28 05:22:01;;;;;;;14.85;6.25;;;0.50;99.90;;;;;;4978518;28;20224;-71
2020/12/28 05:24:27;;;;;;;18.38;7.25;;;0.50;99.90;;;;;;4976791;28;20214;-72
2020/12/28 05:26:54;;;;;;;18.42;7.03;;;0.60;99.90;;;;;;4976887;28;20199;-71
2020/12/28 05:29:23;;;;;;;14.75;6.88;;;0.60;99.90;;;;;;4979708;28;20200;-71
2020/12/28 05:31:51;;;;;;;15.20;6.30;;;0.60;99.90;;;;;;4974530;28;20200;-71
2020/12/28 05:34:27;;;;;;;13.13;6.00;;;0.60;99.90;;;;;;4977754;28;20196;-71
2020/12/28 05:36:58;;;;;;;17.52;6.75;;;0.60;99.90;;;;;;4980936;28;20273;-72
2020/12/28 05:39:26;;;;;;;18.25;7.05;;;0.50;99.90;;;;;;4977703;28;20203;-72
2020/12/28 05:41:56;;;;;;;17.50;6.95;;;0.50;99.90;;;;;;4978307;28;20200;-72
2020/12/28 05:44:26;;;;;;;18.25;7.05;;;0.50;99.90;;;;;;4979269;28;20846;-72
2020/12/28 05:47:10;;;;;;;20.85;7.18;;;0.50;99.90;;;;;;4978805;28;20287;-73
2020/12/28 05:49:41;;;;;;;15.82;6.53;;;0.50;99.90;;;;;;4976009;28;20198;-72
2020/12/28 05:52:09;;;;;;;18.55;6.78;;;0.50;99.90;;;;;;4980342;28;20212;-72
2020/12/28 05:54:35;;;;;;;23.80;7.40;;;0.50;99.90;;;;;;4978866;28;20675;-72
2020/12/28 05:57:02;;;;;;;12.98;6.53;;;0.60;99.90;;;;;;4981645;28;20198;-72
2020/12/28 05:59:27;;;;;;;21.33;8.02;;;0.50;99.90;;;;;;4975063;28;20273;-71
2020/12/28 06:01:53;;;;;;;20.23;7.88;;;0.50;99.90;;;;;;4977018;28;20204;-72
2020/12/28 06:04:20;;;;;;;21.13;6.95;;;0.50;99.90;;;;;;4979636;28;20231;-71
2020/12/28 06:06:46;;;;;;;21.83;6.75;;;0.50;99.90;;;;;;4970856;28;20200;-72
2020/12/28 06:09:18;;;;;;;22.08;6.43;;;0.50;99.90;;;;;;4975500;28;20242;-72
2020/12/28 06:11:45;;;;;;;19.00;7.88;;;0.50;99.90;;;;;;4989208;28;20266;-72
2020/12/28 06:14:18;;;;;;;17.27;7.50;;;0.50;99.90;;;;;;4974569;28;20206;-72
2020/12/28 06:16:45;;;;;;;18.45;7.35;;;0.50;99.90;;;;;;4974586;28;20185;-72
2020/12/28 06:19:24;;;;;;;21.90;7.40;;;0.50;99.90;;;;;;4974634;28;20203;-73
2020/12/28 06:21:52;;;;;;;21.85;7.88;;;0.50;99.90;;;;;;4974046;28;20200;-72
2020/12/28 06:24:28;;;;;;;27.48;8.05;;;0.50;99.90;;;;;;4975131;28;20207;-72
2020/12/28 06:27:03;;;;;;;20.40;7.47;;;0.50;99.90;;;;;;4978132;28;20673;-72
2020/12/28 06:29:29;;;;;;;17.13;7.20;;;0.50;99.90;;;;;;4973284;28;20269;-74
2020/12/28 06:31:55;;;;;;;26.88;7.97;;;0.50;99.90;;;;;;4974484;28;20222;-73
2020/12/28 06:34:21;;;;;;;26.85;8.32;;;0.50;99.90;;;;;;4988226;28;20204;-73
2020/12/28 06:36:58;;;;;;;26.40;8.00;;;0.60;99.90;;;;;;4978482;28;20219;-72
2020/12/28 06:39:24;;;;;;;22.25;7.85;;;0.60;99.90;;;;;;4975052;28;20265;-72
2020/12/28 06:41:50;;;;;;;23.70;8.25;;;0.60;99.90;;;;;;4976337;28;20203;-72
2020/12/28 06:44:26;;;;;;;21.48;8.15;;;0.50;99.90;;;;;;4973609;28;20211;-72
2020/12/28 06:46:52;;;;;;;25.08;8.35;;;0.50;99.90;;;;;;4975501;28;20196;-71
2020/12/28 06:49:17;;;;;;;26.92;8.15;;;0.50;99.90;;;;;;4975242;28;20678;-71
2020/12/28 06:51:43;;;;;;;21.25;8.20;;;0.50;99.90;;;;;;4976896;28;20215;-71
2020/12/28 06:54:09;;;;;;;22.90;7.90;;;0.50;99.90;;;;;;4981083;28;20199;-72
2020/12/28 06:56:34;;;;;;;22.15;8.52;;;0.50;99.90;;;;;;4980587;28;20203;-71
2020/12/28 06:59:01;;;;;;;20.13;8.07;;;0.60;99.90;;;;;;4974531;28;20203;-72
2020/12/28 07:01:28;;;;;;;24.50;8.82;;;0.50;99.90;;;;;;4982142;28;20210;-71
2020/12/28 07:03:54;;;;;;;17.52;7.70;;;0.50;99.90;;;;;;4979883;28;20231;-71
2020/12/28 07:06:20;;;;;;;24.13;8.15;;;0.50;99.90;;;;;;4971906;28;20207;-71
2020/12/28 07:08:47;;;;;;;23.10;8.27;;;0.50;99.90;;;;;;4968159;28;20883;-71
2020/12/28 07:11:20;;;;;;;28.23;10.98;;;0.50;99.90;;;;;;4978104;28;20207;-71
2020/12/28 07:13:46;;;;;;;26.48;8.65;;;0.50;99.90;;;;;;4979529;28;20272;-71
2020/12/28 07:16:12;;;;;;;23.00;7.72;;;0.50;99.90;;;;;;4980753;28;20235;-71
2020/12/28 07:18:38;;;;;;;24.58;9.48;;;0.50;99.90;;;;;;4984060;28;20242;-71
2020/12/28 07:21:05;;;;;;;20.17;8.27;;;0.50;99.90;;;;;;4980797;28;20187;-72
2020/12/28 07:23:32;;;;;;;26.95;9.00;;;0.50;99.90;;;;;;4975606;28;20207;-71
2020/12/28 07:26:05;;;;;;;24.25;8.68;;;0.50;99.90;;;;;;4982703;28;20261;-71
2020/12/28 07:28:32;;;;;;;20.75;7.78;;;0.50;99.90;;;;;;4980165;28;20200;-71
2020/12/28 07:31:03;;;;;;;22.35;8.85;;;0.40;99.90;;;;;;4976617;28;20618;-71
2020/12/28 07:33:29;;;;;;;21.23;8.65;;;0.40;99.90;;;;;;4981520;28;20621;-71
2020/12/28 07:36:13;;;;;;;21.25;8.68;;;0.40;99.90;;;;;;4976837;28;20200;-71
2020/12/28 07:38:43;;;;;;;20.15;8.55;;;0.50;99.90;;;;;;4980516;28;20283;-71
2020/12/28 07:41:18;;;;;;;20.80;8.20;;;0.50;99.90;;;;;;4975628;28;20198;-71
2020/12/28 07:44:06;;;;;;;19.95;8.35;;;0.50;99.90;;;;;;4976413;28;20215;-71
2020/12/28 07:46:32;;;;;;;25.15;9.80;;;0.50;99.90;;;;;;4982070;28;20210;-71
2020/12/28 07:49:21;;;;;;;26.77;9.82;;;0.60;99.90;;;;;;4981362;28;20666;-71
2020/12/28 07:51:50;;;;;;;23.88;9.50;;;0.50;99.90;;;;;;4977499;28;20247;-72
2020/12/28 07:54:26;;;;;;;27.17;9.98;;;0.50;99.90;;;;;;4975690;28;20253;-71
2020/12/28 07:57:01;;;;;;;24.27;8.20;;;0.60;99.90;;;;;;4975178;28;20199;-71
2020/12/28 07:59:59;;;;;;;22.90;8.93;;;0.50;99.90;;;;;;4973331;28;20199;-72
2020/12/28 08:02:39;;;;;;;17.85;8.27;;;0.60;99.90;;;;;;4973451;28;20295;-71
2020/12/28 08:05:06;;;;;;;24.65;7.50;;;0.60;99.90;;;;;;4977189;28;20246;-71
2020/12/28 08:07:35;;;;;;;22.30;8.55;;;0.50;99.90;;;;;;4976586;28;20211;-71
2020/12/28 08:10:05;;;;;;;23.42;9.45;;;0.60;99.90;;;;;;4979374;28;20207;-71
2020/12/28 08:12:31;;;;;;;22.67;8.82;;;0.60;99.90;;;;;;4974591;28;20713;-71
2020/12/28 08:14:57;;;;;;;25.08;9.32;;;0.50;99.90;;;;;;4976418;28;20278;-71
2020/12/28 08:17:27;;;;;;;21.55;8.02;;;0.60;99.90;;;;;;4972163;28;20191;-70
2020/12/28 08:20:11;;;;;;;18.45;7.97;;;0.60;99.90;;;;;;4971893;28;20249;-71
2020/12/28 08:22:38;;;;;;;20.23;8.15;;;0.60;99.90;;;;;;4969760;28;20286;-70
2020/12/28 08:25:06;;;;;;;22.30;8.90;;;0.60;99.90;;;;;;4977471;28;20211;-70
2020/12/28 08:27:33;;;;;;;18.90;7.88;;;0.70;99.90;;;;;;4972038;28;20214;-70
2020/12/28 08:30:00;;;;;;;19.60;7.63;;;0.70;99.90;;;;;;4975153;28;20204;-70
2020/12/28 08:32:30;;;;;;;29.50;7.88;;;0.70;99.90;;;;;;4977678;28;20216;-70
2020/12/28 08:34:58;;;;;;;17.70;7.15;;;0.70;99.90;;;;;;4975481;28;20215;-71
2020/12/28 08:37:24;;;;;;;17.42;7.28;;;0.70;99.90;;;;;;4981199;28;20210;-71
2020/12/28 08:39:50;;;;;;;23.02;7.70;;;0.70;99.90;;;;;;4980581;28;20273;-71
2020/12/28 08:42:34;;;;;;;20.27;8.43;;;0.70;99.90;;;;;;4980323;28;20195;-71
2020/12/28 08:45:04;;;;;;;21.48;6.97;;;0.70;99.90;;;;;;4976538;28;20257;-70
2020/12/28 08:47:30;;;;;;;23.83;7.65;;;0.70;99.90;;;;;;4975496;28;20230;-71
2020/12/28 08:49:56;;;;;;;20.10;7.10;;;0.70;99.90;;;;;;4974009;28;20234;-71
2020/12/28 08:52:23;;;;;;;16.95;7.22;;;0.70;99.90;;;;;;4975750;28;20313;-70
2020/12/28 08:54:59;;;;;;;18.48;7.63;;;0.80;99.90;;;;;;4978020;28;20191;-71
2020/12/28 08:57:26;;;;;;;21.67;8.57;;;0.80;99.90;;;;;;4978073;28;20207;-70
2020/12/28 08:59:53;;;;;;;26.58;9.02;;;0.80;99.90;;;;;;4978373;28;20203;-70
2020/12/28 09:02:23;;;;;;;22.65;10.63;;;0.80;99.90;;;;;;4979163;28;20287;-70
2020/12/28 09:04:49;;;;;;;23.23;8.00;;;0.80;99.90;;;;;;4976365;28;20285;-70
2020/12/28 09:07:17;;;;;;;27.60;12.98;;;0.80;99.90;;;;;;4979286;28;20591;-70
2020/12/28 09:09:44;;;;;;;27.65;11.73;;;0.80;99.90;;;;;;4977582;28;20213;-70
2020/12/28 09:12:11;;;;;;;24.33;11.25;;;0.80;99.90;;;;;;4975124;28;20223;-70
2020/12/28 09:14:38;;;;;;;33.65;15.32;;;0.80;99.90;;;;;;4970262;28;20221;-70
2020/12/28 09:17:04;;;;;;;32.17;15.70;;;0.70;99.90;;;;;;4971464;28;20674;-72
2020/12/28 09:19:30;;;;;;;23.08;10.18;;;0.70;99.90;;;;;;4973623;28;20204;-70
2020/12/28 09:21:56;;;;;;;29.80;12.68;;;0.70;99.90;;;;;;4980386;28;20211;-71
2020/12/28 09:24:23;;;;;;;27.15;10.05;;;0.70;99.90;;;;;;4978406;28;20262;-70
2020/12/28 09:26:49;;;;;;;31.15;11.73;;;0.70;99.90;;;;;;4978997;28;20216;-70
2020/12/28 09:29:15;;;;;;;23.83;8.40;;;0.80;99.90;;;;;;4975476;28;20207;-70
2020/12/28 09:31:40;;;;;;;20.75;8.43;;;0.80;99.90;;;;;;4979532;28;20839;-70
2020/12/28 09:34:06;;;;;;;21.27;7.93;;;0.80;99.90;;;;;;4975274;28;20274;-70
2020/12/28 09:36:32;;;;;;;21.80;9.90;;;0.80;99.90;;;;;;4978203;28;20222;-71
2020/12/28 09:38:58;;;;;;;18.83;8.63;;;0.80;99.90;;;;;;4981123;28;20211;-70
2020/12/28 09:41:24;;;;;;;18.80;8.32;;;0.80;99.90;;;;;;4980549;28;20208;-70
2020/12/28 09:43:50;;;;;;;20.30;8.35;;;0.80;99.90;;;;;;4977025;28;20194;-70
2020/12/28 09:46:19;;;;;;;22.95;7.88;;;0.80;99.90;;;;;;4981366;28;20215;-70
2020/12/28 09:48:46;;;;;;;37.35;15.35;;;0.80;99.90;;;;;;4981021;28;20196;-70
2020/12/28 09:51:12;;;;;;;30.63;12.35;;;0.70;99.90;;;;;;4977682;28;20712;-70
2020/12/28 09:53:39;;;;;;;31.02;12.50;;;0.70;99.90;;;;;;4979968;28;20208;-69
2020/12/28 09:56:05;;;;;;;19.80;9.60;;;0.70;99.90;;;;;;4981980;28;20700;-70
2020/12/28 09:58:32;;;;;;;24.02;10.82;;;0.80;99.90;;;;;;4979966;28;20200;-69
2020/12/28 10:00:59;;;;;;;37.80;15.50;;;0.80;99.90;;;;;;4980212;28;20199;-70
2020/12/28 10:03:25;;;;;;;25.63;11.68;;;0.80;99.90;;;;;;4982049;28;20242;-71
2020/12/28 10:05:51;;;;;;;20.27;8.95;;;0.80;99.90;;;;;;4979506;28;20377;-70
2020/12/28 10:08:17;;;;;;;28.15;11.40;;;0.80;99.90;;;;;;4976185;28;20275;-70
2020/12/28 10:10:44;;;;;;;19.65;9.18;;;0.80;99.90;;;;;;4980168;28;20241;-70
2020/12/28 10:13:11;;;;;;;32.60;12.00;;;0.80;99.90;;;;;;4981003;28;20199;-70
2020/12/28 10:15:36;;;;;;;43.10;15.40;;;0.80;99.90;;;;;;4980991;28;20277;-70
2020/12/28 10:18:39;;;;;;;42.60;13.95;;;0.80;99.90;;;;;;4983511;28;20654;-72
2020/12/28 10:21:08;;;;;;;48.75;19.20;;;0.80;99.90;;;;;;4976605;28;20282;-71
2020/12/28 10:23:34;;;;;;;38.38;16.55;;;0.80;99.90;;;;;;4981862;28;20574;-71
2020/12/28 10:26:00;;;;;;;35.05;15.93;;;0.80;99.90;;;;;;4981629;28;20196;-70
2020/12/28 10:28:26;;;;;;;45.40;19.08;;;0.90;99.90;;;;;;4979120;28;20226;-71
2020/12/28 10:30:52;;;;;;;42.15;18.00;;;0.90;99.90;;;;;;4981488;28;20239;-71
2020/12/28 10:33:17;;;;;;;41.00;17.58;;;0.90;99.90;;;;;;4981392;28;20208;-70
2020/12/28 10:35:43;;;;;;;22.02;10.18;;;1.00;99.90;;;;;;4981471;28;20195;-70
2020/12/28 10:38:08;;;;;;;25.42;10.05;;;1.00;99.90;;;;;;4993467;28;20288;-71
2020/12/28 10:40:34;;;;;;;20.52;7.80;;;1.00;99.90;;;;;;4975434;28;20204;-71
2020/12/28 10:43:00;;;;;;;24.33;8.50;;;1.00;99.90;;;;;;4979424;28;20199;-72
2020/12/28 10:45:26;;;;;;;18.25;8.27;;;1.10;99.90;;;;;;4978882;28;20211;-71
2020/12/28 10:47:52;;;;;;;17.38;7.85;;;1.10;99.90;;;;;;4983050;28;20199;-71
2020/12/28 10:50:18;;;;;;;20.65;7.88;;;1.10;99.90;;;;;;4974596;28;20203;-71
2020/12/28 10:52:44;;;;;;;17.65;7.32;;;1.20;99.90;;;;;;4981949;28;20997;-70
2020/12/28 10:55:09;;;;;;;16.70;7.70;;;1.20;99.90;;;;;;4979751;28;20201;-71
2020/12/28 10:57:35;;;;;;;14.85;7.60;;;1.30;99.90;;;;;;4978611;28;20191;-71
2020/12/28 11:00:01;;;;;;;16.52;7.45;;;1.20;99.90;;;;;;4981778;28;20203;-71
2020/12/28 11:02:26;;;;;;;21.73;7.85;;;1.20;99.90;;;;;;4981446;28;20218;-71
2020/12/28 11:04:52;;;;;;;21.48;6.95;;;1.20;99.90;;;;;;4981699;28;20227;-71
2020/12/28 11:07:18;;;;;;;22.13;7.20;;;1.30;99.90;;;;;;4975961;28;20196;-69
2020/12/28 11:09:43;;;;;;;20.23;8.20;;;1.20;99.90;;;;;;4981284;28;20214;-69
2020/12/28 11:12:09;;;;;;;19.42;8.20;;;1.30;99.90;;;;;;4981289;28;20243;-69
2020/12/28 11:14:34;;;;;;;28.60;9.27;;;1.20;99.90;;;;;;4980798;28;20761;-70
2020/12/28 11:17:04;;;;;;;19.08;8.63;;;1.20;99.90;;;;;;4977870;28;20674;-70
2020/12/28 11:19:30;;;;;;;20.90;8.80;;;1.20;99.90;;;;;;4980308;28;20206;-68
2020/12/28 11:21:55;;;;;;;21.63;8.48;;;1.20;99.90;;;;;;4973075;28;20204;-69
2020/12/28 11:24:21;;;;;;;18.65;7.93;;;1.10;99.90;;;;;;4980620;28;20207;-69
2020/12/28 11:26:48;;;;;;;17.35;8.50;;;1.00;99.90;;;;;;4996441;28;20204;-70
2020/12/28 11:29:14;;;;;;;23.35;8.50;;;1.00;99.90;;;;;;4978254;28;20211;-69
2020/12/28 11:31:40;;;;;;;17.02;7.88;;;1.00;99.90;;;;;;4978930;28;20262;-69
2020/12/28 11:34:06;;;;;;;18.63;8.30;;;0.90;99.90;;;;;;4980954;28;20195;-69
2020/12/28 11:36:32;;;;;;;24.75;10.02;;;1.00;99.90;;;;;;4979397;28;20207;-70
2020/12/28 11:38:58;;;;;;;24.85;10.55;;;1.00;99.90;;;;;;4976132;28;20300;-70
2020/12/28 11:41:24;;;;;;;29.83;12.52;;;1.10;99.90;;;;;;4979515;28;20646;-70
2020/12/28 11:43:49;;;;;;;27.90;11.93;;;1.10;99.90;;;;;;4977704;28;20200;-70
2020/12/28 11:46:15;;;;;;;24.50;10.32;;;1.10;99.90;;;;;;4980712;28;20285;-69
2020/12/28 11:48:41;;;;;;;21.10;10.10;;;1.00;99.90;;;;;;4974848;28;20215;-70
2020/12/28 11:51:07;;;;;;;25.42;10.05;;;1.00;99.90;;;;;;4979431;28;20200;-69
2020/12/28 11:53:37;;;;;;;26.52;10.60;;;1.00;99.90;;;;;;4978323;28;20196;-69
2020/12/28 11:56:12;;;;;;;30.20;10.90;;;1.00;99.90;;;;;;4978127;28;20203;-69
2020/12/28 11:58:41;;;;;;;20.77;8.68;;;1.00;99.90;;;;;;4978646;28;20565;-70
2020/12/28 12:01:15;;;;;;;23.52;9.73;;;1.00;99.90;;;;;;4979571;28;20653;-70
2020/12/28 12:03:44;;;;;;;22.83;9.50;;;0.90;99.90;;;;;;4980124;28;20347;-70
2020/12/28 12:06:17;;;;;;;18.60;8.70;;;0.90;99.90;;;;;;4984793;28;20204;-70
2020/12/28 12:11:30;;;;;;;19.80;8.68;;;1.00;99.90;;;;;;4982597;28;20265;-71
2020/12/28 12:13:55;;;;;;;20.58;8.90;;;1.00;99.90;;;;;;4983206;28;20207;-70
2020/12/28 12:16:23;;;;;;;23.05;10.25;;;1.00;99.90;;;;;;4980776;28;20722;-70
2020/12/28 12:18:49;;;;;;;21.40;10.15;;;0.90;99.90;;;;;;4978622;28;20302;-69
2020/12/28 12:21:14;;;;;;;23.85;11.25;;;1.00;99.90;;;;;;4976843;28;20279;-70
2020/12/28 12:23:40;;;;;;;26.83;10.35;;;0.90;99.90;;;;;;4986389;28;21038;-70
2020/12/28 12:26:06;;;;;;;21.50;10.35;;;1.00;99.90;;;;;;4983939;28;20208;-70
2020/12/28 12:28:32;;;;;;;25.63;10.65;;;1.00;99.90;;;;;;4984061;28;20212;-69
2020/12/28 12:30:57;;;;;;;21.33;9.52;;;1.00;99.90;;;;;;4986888;28;20199;-69
2020/12/28 12:33:23;;;;;;;25.08;8.60;;;1.00;99.90;;;;;;4979582;28;20226;-70
2020/12/28 12:35:48;;;;;;;18.40;8.57;;;1.00;99.90;;;;;;4998305;28;20290;-71
2020/12/28 12:38:14;;;;;;;20.08;8.50;;;1.00;99.90;;;;;;4987105;28;20653;-70
2020/12/28 12:40:40;;;;;;;18.73;8.27;;;0.90;99.90;;;;;;4983663;28;20208;-70
2020/12/28 12:43:05;;;;;;;25.15;11.35;;;0.90;99.90;;;;;;4986369;28;20646;-70
2020/12/28 12:45:31;;;;;;;25.67;12.98;;;0.90;99.90;;;;;;4985078;28;20196;-70
2020/12/28 12:47:57;;;;;;;24.40;10.07;;;0.90;99.90;;;;;;4985370;28;20260;-69